Time;durP1;ratioP1;P1;durP2;ratioP2;P2;SDS_P1;SDS_P2;PMS_P1;PMS_P2;Temp;Humidity;BMP_temperature;BMP_pressure;BME280_temperature;BME280_humidity;BME280_pressure;Samples;Min_cycle;Max_cycle;Signal;HPM_P1;HPM_P2
2024/04/03 00:00:42;;;;;;;8.03;5.03;;;;;;;9.65;100.00;99931.81;5062744;28;20235;-81
2024/04/03 00:03:08;;;;;;;9.17;5.43;;;;;;;9.63;100.00;99942.53;5060386;28;20232;-81
2024/04/03 00:05:35;;;;;;;13.57;5.60;;;;;;;9.64;100.00;99930.94;5058679;28;20221;-81
2024/04/03 00:08:02;;;;;;;8.90;5.07;;;;;;;9.63;100.00;99934.56;5059575;28;20263;-81
2024/04/03 00:10:28;;;;;;;11.73;6.00;;;;;;;9.64;100.00;99933.63;5058533;28;20212;-80
2024/04/03 00:12:55;;;;;;;7.20;5.37;;;;;;;9.63;100.00;99926.59;5061900;28;20210;-80
2024/04/03 00:15:20;;;;;;;7.37;5.37;;;;;;;9.60;100.00;99934.78;5059680;28;20233;-81
2024/04/03 00:17:47;;;;;;;13.40;6.20;;;;;;;9.62;100.00;99932.88;5054053;28;20592;-81
2024/04/03 00:20:13;;;;;;;9.63;5.97;;;;;;;9.59;100.00;99925.09;5056251;28;20197;-81
2024/04/03 00:22:41;;;;;;;11.17;5.93;;;;;;;9.56;100.00;99922.66;5056772;28;20198;-81
2024/04/03 00:25:06;;;;;;;9.03;5.93;;;;;;;9.59;100.00;99924.25;5052984;28;20229;-81
2024/04/03 00:27:34;;;;;;;10.47;6.10;;;;;;;9.54;100.00;99913.94;5056572;28;20209;-81
2024/04/03 00:29:59;;;;;;;9.40;6.70;;;;;;;9.52;100.00;99912.34;5061069;28;20233;-82
2024/04/03 00:32:47;;;;;;;9.27;5.43;;;;;;;9.50;100.00;99912.44;5057305;28;20221;-82
2024/04/03 00:35:13;;;;;;;7.37;5.70;;;;;;;9.47;100.00;99914.50;5060171;28;20246;-81
2024/04/03 00:37:41;;;;;;;8.83;5.90;;;;;;;9.49;100.00;99928.53;5058749;28;20209;-82
2024/04/03 00:40:07;;;;;;;8.70;6.13;;;;;;;9.44;100.00;99923.53;5060853;28;20244;-83
2024/04/03 00:42:34;;;;;;;10.60;7.37;;;;;;;9.40;100.00;99930.00;5057863;28;20259;-83
2024/04/03 00:44:59;;;;;;;11.53;7.13;;;;;;;9.38;100.00;99942.56;5051805;28;20698;-81
2024/04/03 00:47:27;;;;;;;9.50;6.20;;;;;;;9.38;100.00;99934.56;5059990;28;20202;-81
2024/04/03 00:49:53;;;;;;;10.27;5.83;;;;;;;9.37;100.00;99935.53;5050459;28;20787;-82
2024/04/03 00:52:21;;;;;;;9.07;6.20;;;;;;;9.35;100.00;99918.84;5057466;28;20271;-81
2024/04/03 00:54:48;;;;;;;10.03;6.20;;;;;;;9.34;100.00;99917.13;5055735;28;20198;-81
2024/04/03 00:57:15;;;;;;;9.73;6.93;;;;;;;9.31;100.00;99917.38;5057809;28;20221;-81
2024/04/03 00:59:41;;;;;;;11.07;6.50;;;;;;;9.29;100.00;99917.47;5052821;28;20252;-81
2024/04/03 01:02:08;;;;;;;9.80;6.80;;;;;;;9.26;100.00;99917.69;5057061;28;20215;-81
2024/04/03 01:04:34;;;;;;;13.37;7.87;;;;;;;9.22;100.00;99918.00;5054949;28;20198;-80
2024/04/03 01:07:03;;;;;;;10.10;7.10;;;;;;;9.20;100.00;99912.78;5054757;28;20255;-81
2024/04/03 01:09:28;;;;;;;13.80;7.77;;;;;;;9.21;100.00;99903.88;5051254;28;20197;-80
2024/04/03 01:11:56;;;;;;;13.40;7.87;;;;;;;9.20;100.00;99907.47;5058082;28;20216;-80
2024/04/03 01:14:22;;;;;;;14.40;7.03;;;;;;;9.17;100.00;99906.84;5052951;28;20233;-81
2024/04/03 01:16:49;;;;;;;12.27;7.00;;;;;;;9.17;100.00;99910.34;5053788;28;20233;-81
2024/04/03 01:19:15;;;;;;;12.17;8.20;;;;;;;9.18;100.00;99905.88;5060435;28;20198;-81
2024/04/03 01:21:42;;;;;;;11.93;7.23;;;;;;;9.18;100.00;99901.41;5063289;28;20682;-81
2024/04/03 01:24:09;;;;;;;13.10;7.37;;;;;;;9.18;100.00;99912.03;5061116;28;20208;-81
2024/04/03 01:26:36;;;;;;;12.50;7.37;;;;;;;9.17;100.00;99905.03;5061015;28;20824;-83
2024/04/03 01:29:02;;;;;;;12.20;6.03;;;;;;;9.19;100.00;99902.28;5062549;28;20598;-81
2024/04/03 01:31:28;;;;;;;10.77;6.63;;;;;;;9.18;100.00;99903.22;5061244;28;20202;-81
2024/04/03 01:33:54;;;;;;;11.63;6.70;;;;;;;9.17;100.00;99897.06;5063929;28;20210;-82
2024/04/03 01:36:20;;;;;;;11.57;7.30;;;;;;;9.21;100.00;99897.69;5062397;28;20226;-81
2024/04/03 01:38:46;;;;;;;13.53;8.00;;;;;;;9.18;100.00;99896.09;5064690;28;20221;-83
2024/04/03 01:41:15;;;;;;;11.43;6.53;;;;;;;9.18;100.00;99890.78;5066029;28;20209;-82
2024/04/03 01:43:40;;;;;;;12.20;6.67;;;;;;;9.18;100.00;99895.25;5063192;28;20213;-81
2024/04/03 01:46:07;;;;;;;12.00;6.20;;;;;;;9.18;100.00;99903.22;5064587;28;20228;-81
2024/04/03 01:48:33;;;;;;;11.70;5.93;;;;;;;9.15;100.00;99900.78;5064402;28;20213;-81
2024/04/03 01:50:59;;;;;;;10.87;6.40;;;;;;;9.14;100.00;99897.25;5054032;28;20206;-81
2024/04/03 01:53:25;;;;;;;10.00;6.47;;;;;;;9.14;100.00;99891.09;5063707;28;20232;-81
2024/04/03 01:55:55;;;;;;;13.17;6.60;;;;;;;9.15;100.00;99898.13;5062037;28;20861;-81
2024/04/03 01:58:23;;;;;;;10.50;6.03;;;;;;;9.14;100.00;99893.75;5061175;28;20233;-81
2024/04/03 02:00:50;;;;;;;10.93;5.57;;;;;;;9.14;100.00;99894.59;5061518;28;20225;-81
2024/04/03 02:03:16;;;;;;;13.27;5.77;;;;;;;9.11;100.00;99889.53;5058651;28;20198;-81
2024/04/03 02:05:43;;;;;;;9.63;5.27;;;;;;;9.11;100.00;99881.56;5061665;28;20232;-81
2024/04/03 02:08:10;;;;;;;7.73;4.50;;;;;;;9.14;100.00;99888.44;5053205;28;20237;-81
2024/04/03 02:10:36;;;;;;;9.53;5.03;;;;;;;9.13;100.00;99884.97;5061649;28;20206;-81
2024/04/03 02:13:02;;;;;;;8.67;4.50;;;;;;;9.14;100.00;99878.66;5059766;28;20319;-81
2024/04/03 02:15:30;;;;;;;9.30;5.03;;;;;;;9.13;100.00;99877.00;5056416;28;20248;-81
2024/04/03 02:17:56;;;;;;;9.13;5.07;;;;;;;9.16;100.00;99868.78;5061958;28;20214;-81
2024/04/03 02:20:24;;;;;;;11.43;4.80;;;;;;;9.15;100.00;99871.56;5052835;28;20215;-81
2024/04/03 02:22:51;;;;;;;7.77;4.43;;;;;;;9.13;100.00;99869.03;5061056;28;20237;-81
2024/04/03 02:25:17;;;;;;;6.93;3.50;;;;;;;9.11;100.00;99868.28;5058169;28;20820;-82
2024/04/03 02:27:44;;;;;;;9.40;3.37;;;;;;;9.11;100.00;99865.63;5047752;22;20238;-72
2024/04/03 02:30:10;;;;;;;7.77;3.50;;;;;;;9.11;100.00;99870.09;5020806;28;20234;-72
2024/04/03 02:32:38;;;;;;;9.00;3.67;;;;;;;9.15;100.00;99868.91;5026259;28;20623;-71
2024/04/03 02:35:04;;;;;;;13.20;4.33;;;;;;;9.14;100.00;99868.03;5031858;28;20743;-72
2024/04/03 02:37:31;;;;;;;7.97;3.27;;;;;;;9.16;100.00;99867.94;5028112;28;20234;-72
2024/04/03 02:39:56;;;;;;;6.97;3.40;;;;;;;9.15;100.00;99871.56;5025244;28;20228;-73
2024/04/03 02:42:24;;;;;;;9.13;3.90;;;;;;;9.13;100.00;99874.34;5035012;28;20195;-72
2024/04/03 02:44:50;;;;;;;11.20;3.60;;;;;;;9.14;100.00;99864.53;5028138;28;20305;-71
2024/04/03 02:47:16;;;;;;;8.13;3.70;;;;;;;9.14;100.00;99870.69;5026290;28;20297;-72
2024/04/03 02:49:43;;;;;;;9.77;3.70;;;;;;;9.15;100.00;99861.78;5027695;28;20238;-72
2024/04/03 02:52:10;;;;;;;7.90;2.90;;;;;;;9.16;100.00;99860.81;5031555;28;20324;-72
2024/04/03 02:54:35;;;;;;;11.07;3.80;;;;;;;9.17;100.00;99864.31;5032087;28;20202;-70
2024/04/03 02:57:02;;;;;;;9.13;3.03;;;;;;;9.17;100.00;99864.31;5029307;28;20305;-70
2024/04/03 02:59:28;;;;;;;6.87;2.50;;;;;;;9.16;100.00;99863.47;5031468;28;20249;-72
2024/04/03 03:01:54;;;;;;;7.63;2.40;;;;;;;9.18;100.00;99860.72;5033561;28;20294;-72
2024/04/03 03:04:21;;;;;;;8.93;2.50;;;;;;;9.17;100.00;99861.66;5035422;28;20230;-72
2024/04/03 03:06:49;;;;;;;7.63;2.70;;;;;;;9.18;100.00;99866.03;5028117;28;20217;-72
2024/04/03 03:09:17;;;;;;;7.80;2.70;;;;;;;9.16;100.00;99858.16;5031607;28;20203;-73
2024/04/03 03:11:42;;;;;;;8.60;2.77;;;;;;;9.18;100.00;99858.91;5035405;28;20281;-72
2024/04/03 03:14:09;;;;;;;9.23;2.30;;;;;;;9.20;100.00;99858.81;5031986;28;21483;-73
2024/04/03 03:16:34;;;;;;;5.77;2.27;;;;;;;9.19;100.00;99867.72;5031520;28;20230;-72
2024/04/03 03:19:01;;;;;;;10.43;3.07;;;;;;;9.20;100.00;99853.50;5033430;28;20201;-72
2024/04/03 03:21:26;;;;;;;7.63;2.20;;;;;;;9.21;100.00;99857.84;5030585;28;20301;-72
2024/04/03 03:23:54;;;;;;;9.37;2.30;;;;;;;9.23;100.00;99840.84;5032252;28;20292;-73
2024/04/03 03:26:20;;;;;;;7.63;2.07;;;;;;;9.23;100.00;99845.31;5028361;28;20324;-72
2024/04/03 03:28:47;;;;;;;7.83;2.43;;;;;;;9.21;100.00;99853.38;5030687;28;20298;-71
2024/04/03 03:31:12;;;;;;;5.70;2.00;;;;;;;9.22;100.00;99856.91;5029488;28;20588;-72
2024/04/03 03:33:41;;;;;;;7.77;1.80;;;;;;;9.21;100.00;99853.38;5028958;28;20194;-73
2024/04/03 03:36:07;;;;;;;6.03;1.97;;;;;;;9.20;100.00;99848.19;5040078;28;20249;-73
2024/04/03 03:38:34;;;;;;;11.23;2.73;;;;;;;9.19;100.00;99857.09;5033882;28;20563;-71
2024/04/03 03:41:02;;;;;;;4.20;2.13;;;;;;;9.19;100.00;99851.78;5037347;28;20312;-72
2024/04/03 03:43:29;;;;;;;8.40;2.70;;;;;;;9.20;100.00;99858.81;5031691;28;20211;-70
2024/04/03 03:45:55;;;;;;;7.73;1.90;;;;;;;9.19;100.00;99852.63;5033860;28;20292;-73
2024/04/03 03:52:35;;;;;;;9.27;2.07;;;;;;;9.19;100.00;99847.31;5035121;28;20195;-70
2024/04/03 03:54:04;;;;;;;8.03;2.50;;;;;;;9.20;100.00;99843.72;4993722;28;20197;-73
2024/04/03 03:56:32;;;;;;;6.70;2.20;;;;;;;9.20;100.00;99848.19;5035257;28;20252;-71
2024/04/03 03:58:58;;;;;;;9.53;3.23;;;;;;;9.18;100.00;99837.66;5032095;28;20285;-72
2024/04/03 04:01:25;;;;;;;5.33;2.43;;;;;;;9.18;100.00;99839.47;5035430;28;20214;-72
2024/04/03 04:03:50;;;;;;;6.00;2.30;;;;;;;9.19;100.00;99841.16;5036572;28;20205;-72
2024/04/03 04:06:17;;;;;;;5.60;2.10;;;;;;;9.20;100.00;99842.88;5033052;28;20754;-72
2024/04/03 04:08:42;;;;;;;5.57;2.43;;;;;;;9.20;100.00;99840.22;5035455;28;20206;-72
2024/04/03 04:11:09;;;;;;;7.70;2.30;;;;;;;9.21;100.00;99840.09;5038144;28;20674;-72
2024/04/03 04:13:36;;;;;;;6.90;2.17;;;;;;;9.22;100.00;99836.50;5034768;28;20290;-72
2024/04/03 04:16:03;;;;;;;6.13;2.10;;;;;;;9.24;100.00;99839.03;5036644;28;20214;-72
2024/04/03 04:18:29;;;;;;;7.27;2.27;;;;;;;9.23;100.00;99843.50;5033215;28;20288;-70
2024/04/03 04:20:58;;;;;;;7.93;2.23;;;;;;;9.24;100.00;99839.03;5035582;28;20222;-72
2024/04/03 04:23:24;;;;;;;8.00;2.53;;;;;;;9.25;100.00;99846.91;5027092;28;20587;-71
2024/04/03 04:25:55;;;;;;;9.90;2.70;;;;;;;9.27;100.00;99844.16;5025874;28;20217;-72
2024/04/03 04:28:21;;;;;;;8.10;2.87;;;;;;;9.25;100.00;99846.06;5022157;28;20225;-72
2024/04/03 04:30:57;;;;;;;8.13;2.17;;;;;;;9.26;100.00;99834.47;5026685;28;20218;-72
2024/04/03 04:33:22;;;;;;;4.60;2.40;;;;;;;9.30;100.00;99838.63;5021044;28;20753;-72
2024/04/03 04:35:53;;;;;;;6.17;2.63;;;;;;;9.33;100.00;99843.69;5027800;28;20282;-72
2024/04/03 04:38:18;;;;;;;5.97;2.40;;;;;;;9.39;100.00;99840.59;5020128;28;20226;-72
2024/04/03 04:40:53;;;;;;;6.90;3.10;;;;;;;9.37;100.00;99837.22;5025973;28;20219;-72
2024/04/03 04:43:19;;;;;;;6.13;2.83;;;;;;;9.39;100.00;99835.28;5022932;28;20293;-72
2024/04/03 04:45:45;;;;;;;9.47;2.20;;;;;;;9.41;100.00;99836.03;5024755;28;20202;-71
2024/04/03 04:48:12;;;;;;;5.47;2.40;;;;;;;9.45;100.00;99834.88;5029411;28;20286;-72
2024/04/03 04:50:39;;;;;;;7.23;2.40;;;;;;;9.45;100.00;99834.88;5025158;28;20217;-72
2024/04/03 04:53:04;;;;;;;5.80;2.30;;;;;;;9.47;100.00;99829.44;5032745;28;20205;-70
2024/04/03 04:55:31;;;;;;;13.77;3.30;;;;;;;9.52;100.00;99825.47;5024857;28;21322;-72
2024/04/03 04:57:57;;;;;;;5.93;2.73;;;;;;;9.54;100.00;99828.03;5032320;28;20218;-72
2024/04/03 05:00:23;;;;;;;6.50;2.87;;;;;;;9.54;100.00;99839.50;5028954;28;20242;-72
2024/04/03 05:02:49;;;;;;;6.13;2.30;;;;;;;9.57;100.00;99826.00;5032442;28;20206;-71
2024/04/03 05:05:17;;;;;;;4.60;2.47;;;;;;;9.60;100.00;99831.09;5029226;28;20320;-72
2024/04/03 05:07:42;;;;;;;6.27;2.60;;;;;;;9.57;100.00;99836.63;5027456;28;20285;-71
2024/04/03 05:10:09;;;;;;;6.70;3.30;;;;;;;9.54;100.00;99841.31;5026822;28;20640;-71
2024/04/03 05:12:35;;;;;;;7.27;2.57;;;;;;;9.53;100.00;99843.13;5026279;28;20208;-73
2024/04/03 05:15:02;;;;;;;4.80;2.20;;;;;;;9.54;100.00;99842.16;5026909;28;20199;-73
2024/04/03 05:17:27;;;;;;;4.10;2.43;;;;;;;9.55;100.00;99854.50;5028717;28;20694;-73
2024/04/03 05:19:54;;;;;;;2.83;2.57;;;;;;;9.58;100.00;99842.81;5033157;28;20241;-73
2024/04/03 05:22:21;;;;;;;5.90;2.03;;;;;;;9.60;100.00;99856.84;5037044;28;20204;-72
2024/04/03 05:24:51;;;;;;;4.20;1.97;;;;;;;9.63;100.00;99845.97;5033307;28;20934;-72
2024/04/03 05:27:17;;;;;;;4.20;2.07;;;;;;;9.60;100.00;99847.06;5034330;28;20202;-71
2024/04/03 05:29:44;;;;;;;2.47;1.77;;;;;;;9.60;100.00;99852.38;5032756;28;20240;-73
2024/04/03 05:32:09;;;;;;;6.30;2.10;;;;;;;9.59;100.00;99845.34;5028051;28;20644;-71
2024/04/03 05:34:36;;;;;;;4.63;2.13;;;;;;;9.63;100.00;99840.66;5033228;28;20302;-72
2024/04/03 05:37:01;;;;;;;5.27;1.63;;;;;;;9.61;100.00;99840.78;5032736;28;20313;-72
2024/04/03 05:39:30;;;;;;;4.13;1.80;;;;;;;9.59;100.00;99836.53;5029502;28;20324;-72
2024/04/03 05:41:55;;;;;;;2.40;1.50;;;;;;;9.64;100.00;99837.06;5035196;28;20232;-73
2024/04/03 05:44:22;;;;;;;2.97;1.80;;;;;;;9.59;100.00;99834.72;5034716;28;20233;-72
2024/04/03 05:46:48;;;;;;;4.63;1.60;;;;;;;9.57;100.00;99844.59;5030661;28;20282;-72
2024/04/03 05:49:15;;;;;;;5.23;1.60;;;;;;;9.59;100.00;99836.53;5033303;28;20214;-73
2024/04/03 05:51:43;;;;;;;3.07;1.90;;;;;;;9.55;100.00;99843.88;5031943;28;20211;-72
2024/04/03 05:54:10;;;;;;;2.83;1.83;;;;;;;9.57;100.00;99852.59;5031995;28;20293;-72
2024/04/03 05:56:37;;;;;;;3.43;1.80;;;;;;;9.57;100.00;99855.25;5032242;28;20225;-71
2024/04/03 05:59:03;;;;;;;3.73;1.50;;;;;;;9.61;100.00;99854.06;5034787;28;20211;-72
2024/04/03 06:01:29;;;;;;;2.30;1.70;;;;;;;9.61;100.00;99859.38;5034608;28;20217;-70
2024/04/03 06:03:57;;;;;;;3.93;1.83;;;;;;;9.60;100.00;99848.84;5032464;28;20748;-71
2024/04/03 06:06:23;;;;;;;3.67;1.90;;;;;;;9.58;100.00;99854.28;5033886;28;20210;-71
2024/04/03 06:08:49;;;;;;;2.77;1.60;;;;;;;9.61;100.00;99843.44;5039750;28;20233;-71
2024/04/03 06:11:15;;;;;;;2.97;2.20;;;;;;;9.62;100.00;99850.44;5031433;28;20671;-73
2024/04/03 06:13:43;;;;;;;4.70;4.20;;;;;;;9.61;100.00;99851.41;5035686;28;20289;-72
2024/04/03 06:16:09;;;;;;;2.57;2.03;;;;;;;9.59;100.00;99855.97;5034202;28;20214;-70
2024/04/03 06:18:36;;;;;;;6.23;3.00;;;;;;;9.58;100.00;99854.28;5035536;28;20229;-71
2024/04/03 06:21:10;;;;;;;6.20;4.30;;;;;;;9.57;100.00;99854.38;5034456;28;20254;-72
2024/04/03 06:23:37;;;;;;;4.53;2.70;;;;;;;9.60;100.00;99852.38;5030981;28;20217;-70
2024/04/03 06:26:03;;;;;;;3.93;2.27;;;;;;;9.61;100.00;99855.88;5026766;28;20203;-73
2024/04/03 06:28:29;;;;;;;4.37;2.70;;;;;;;9.59;100.00;99850.66;5025985;28;20207;-72
2024/04/03 06:30:57;;;;;;;6.43;2.70;;;;;;;9.59;100.00;99855.97;5026332;28;20252;-72
2024/04/03 06:33:23;;;;;;;5.73;5.10;;;;;;;9.59;100.00;99849.81;5026250;28;20221;-70
2024/04/03 06:35:50;;;;;;;5.70;5.10;;;;;;;9.61;100.00;99847.91;5028691;28;20203;-73
2024/04/03 06:38:15;;;;;;;4.13;3.53;;;;;;;9.61;100.00;99843.44;5031886;28;20249;-70
2024/04/03 06:40:42;;;;;;;4.73;4.03;;;;;;;9.62;100.00;99839.81;5030717;28;20641;-72
2024/04/03 06:43:08;;;;;;;6.30;5.40;;;;;;;9.63;100.00;99841.53;5036637;28;20691;-72
2024/04/03 06:45:35;;;;;;;4.63;4.23;;;;;;;9.67;100.00;99848.28;5029629;28;20285;-73
2024/04/03 06:48:03;;;;;;;4.50;3.90;;;;;;;9.69;100.00;99843.72;5029643;28;20211;-70
2024/04/03 06:50:29;;;;;;;3.10;2.80;;;;;;;9.74;100.00;99838.91;5020952;28;20234;-71
2024/04/03 06:52:58;;;;;;;5.00;2.87;;;;;;;9.78;100.00;99836.88;5024056;28;20298;-73
2024/04/03 06:55:25;;;;;;;3.30;2.50;;;;;;;9.81;100.00;99839.34;5030835;28;20211;-72
2024/04/03 06:57:50;;;;;;;4.87;2.73;;;;;;;9.82;100.00;99833.06;5028665;28;20316;-73
2024/04/03 07:00:18;;;;;;;2.93;2.50;;;;;;;9.82;100.00;99834.88;5024851;28;20308;-72
2024/04/03 07:02:44;;;;;;;3.30;2.97;;;;;;;9.84;100.00;99830.28;5025924;28;20206;-71
2024/04/03 07:05:12;;;;;;;4.43;3.50;;;;;;;9.89;100.00;99836.09;5021150;28;20282;-73
2024/04/03 07:07:38;;;;;;;3.30;2.73;;;;;;;9.94;100.00;99839.28;5022408;28;20283;-71
2024/04/03 07:10:05;;;;;;;3.37;2.67;;;;;;;9.99;100.00;99831.81;5026648;28;20635;-72
2024/04/03 07:12:32;;;;;;;2.90;2.60;;;;;;;10.00;100.00;99838.84;5028076;28;20270;-71
2024/04/03 07:14:57;;;;;;;3.73;2.90;;;;;;;10.04;100.00;99837.63;5020048;28;20211;-73
2024/04/03 07:17:24;;;;;;;6.00;3.03;;;;;;;10.08;100.00;99833.78;5024552;28;20227;-72
2024/04/03 07:19:49;;;;;;;4.83;4.10;;;;;;;10.14;100.00;99837.81;5023787;28;20219;-72
2024/04/03 07:22:17;;;;;;;3.33;3.03;;;;;;;10.19;100.00;99835.69;5021278;28;20213;-71
2024/04/03 07:24:43;;;;;;;4.20;3.27;;;;;;;10.20;100.00;99826.75;5026423;28;20212;-72
2024/04/03 07:27:10;;;;;;;3.50;2.80;;;;;;;10.27;100.00;99830.63;5023945;28;20314;-71
2024/04/03 07:29:36;;;;;;;3.73;3.23;;;;;;;10.37;100.00;99831.66;5032138;28;20813;-73
2024/04/03 07:32:02;;;;;;;3.77;3.30;;;;;;;10.44;100.00;99830.19;5025732;28;20211;-73
2024/04/03 07:34:28;;;;;;;4.27;2.90;;;;;;;10.49;100.00;99828.06;5028324;28;20288;-74
2024/04/03 07:36:55;;;;;;;3.20;3.00;;;;;;;10.55;100.00;99840.06;5029210;28;20245;-73
2024/04/03 07:39:22;;;;;;;3.57;2.70;;;;;;;10.59;100.00;99836.16;5031236;28;20299;-73
2024/04/03 07:41:49;;;;;;;2.53;2.33;;;;;;;10.65;100.00;99846.38;5029286;28;20214;-73
2024/04/03 07:44:17;;;;;;;3.17;2.13;;;;;;;10.67;100.00;99847.94;5025671;28;20213;-72
2024/04/03 07:46:44;;;;;;;2.30;2.07;;;;;;;10.70;100.00;99852.19;5027266;28;20208;-73
2024/04/03 07:49:10;;;;;;;3.07;2.20;;;;;;;10.78;100.00;99849.78;5024089;28;20297;-72
2024/04/03 07:51:37;;;;;;;1.97;1.77;;;;;;;10.90;100.00;99851.50;5023437;28;20210;-72
2024/04/03 07:54:03;;;;;;;2.47;2.23;;;;;;;10.92;100.00;99854.91;5026032;28;20302;-73
2024/04/03 07:56:31;;;;;;;2.17;1.93;;;;;;;11.01;100.00;99848.00;5025120;28;20312;-73
2024/04/03 07:58:57;;;;;;;3.07;2.13;;;;;;;11.03;100.00;99841.59;5024516;28;20359;-74
2024/04/03 08:01:24;;;;;;;2.13;1.57;;;;;;;11.09;100.00;99853.59;5025915;28;20304;-73
2024/04/03 08:03:49;;;;;;;2.13;1.73;;;;;;;11.09;100.00;99851.78;5028877;28;20204;-73
2024/04/03 08:06:16;;;;;;;2.90;1.70;;;;;;;11.12;100.00;99851.53;5029864;28;20258;-73
2024/04/03 08:08:41;;;;;;;2.73;1.60;;;;;;;11.18;100.00;99854.69;5027575;28;20209;-72
2024/04/03 08:11:08;;;;;;;1.77;1.57;;;;;;;11.20;100.00;99853.59;5022106;28;20230;-72
2024/04/03 08:13:35;;;;;;;2.40;1.70;;;;;;;11.25;100.00;99856.75;5025825;28;20208;-73
2024/04/03 08:16:02;;;;;;;1.80;1.40;;;;;;;11.32;100.00;99863.28;5026026;28;20217;-73
2024/04/03 08:18:28;;;;;;;3.93;1.20;;;;;;;11.41;100.00;99856.41;5024213;28;20567;-73
2024/04/03 08:21:06;;;;;;;1.33;1.20;;;;;;;11.41;100.00;99854.56;5024538;28;20232;-72
2024/04/03 08:23:32;;;;;;;1.73;1.13;;;;;;;11.44;100.00;99850.81;5024783;28;20198;-73
2024/04/03 08:26:06;;;;;;;3.10;1.17;;;;;;;11.48;100.00;99853.09;5023995;28;20218;-73
2024/04/03 08:28:32;;;;;;;1.83;1.20;;;;;;;11.52;100.00;99852.84;5025869;28;20205;-74
2024/04/03 08:31:00;;;;;;;1.40;1.30;;;;;;;11.56;100.00;99865.00;5022792;28;20233;-73
2024/04/03 08:33:26;;;;;;;2.03;0.90;;;;;;;11.56;100.00;99860.50;5022196;28;20235;-72
2024/04/03 08:35:59;;;;;;;1.83;1.00;;;;;;;11.60;100.00;99864.63;5024624;28;20313;-73
2024/04/03 08:38:24;;;;;;;1.60;1.10;;;;;;;11.59;100.00;99859.41;5023006;28;20321;-73
2024/04/03 08:40:55;;;;;;;1.10;0.90;;;;;;;11.57;100.00;99862.19;5021608;28;20679;-72
2024/04/03 08:43:22;;;;;;;1.37;0.90;;;;;;;11.67;100.00;99863.16;5020189;28;20220;-73
2024/04/03 08:45:49;;;;;;;2.07;1.10;;;;;;;11.67;100.00;99860.47;5025092;28;20212;-72
2024/04/03 08:48:21;;;;;;;1.10;1.00;;;;;;;11.70;100.00;99867.38;5021746;28;21373;-73
2024/04/03 08:50:48;;;;;;;3.80;1.30;;;;;;;11.72;100.00;99860.97;5024373;28;20272;-73
2024/04/03 08:53:17;;;;;;;2.73;1.10;;;;;;;11.78;100.00;99871.19;5024623;28;20212;-72
2024/04/03 08:55:46;;;;;;;1.03;0.90;;;;;;;11.85;100.00;99865.34;5024643;28;20222;-73
2024/04/03 08:58:12;;;;;;;1.60;1.10;;;;;;;11.83;100.00;99873.47;5025213;28;20248;-74
2024/04/03 09:00:39;;;;;;;3.03;1.00;;;;;;;11.86;100.00;99872.38;5023192;28;20730;-73
2024/04/03 09:03:05;;;;;;;1.63;0.97;;;;;;;11.86;100.00;99867.88;5026031;28;20339;-74
2024/04/03 09:05:33;;;;;;;2.67;1.50;;;;;;;11.90;100.00;99861.31;5023102;28;20785;-73
2024/04/03 09:08:02;;;;;;;2.03;1.57;;;;;;;11.91;100.00;99867.50;5023575;28;20766;-72
2024/04/03 09:10:35;;;;;;;1.77;1.00;;;;;;;11.96;100.00;99868.84;5025641;28;20232;-72
2024/04/03 09:13:04;;;;;;;2.00;0.90;;;;;;;11.97;100.00;99875.03;5020270;28;20260;-73
2024/04/03 09:15:31;;;;;;;1.73;1.10;;;;;;;11.99;100.00;99878.44;5026544;28;20202;-73
2024/04/03 09:18:00;;;;;;;1.67;0.93;;;;;;;11.98;100.00;99876.72;5020678;28;20325;-72
2024/04/03 09:20:27;;;;;;;1.80;1.17;;;;;;;11.96;100.00;99884.84;5023664;28;20229;-73
2024/04/03 09:22:56;;;;;;;1.47;0.80;;;;;;;11.98;100.00;99893.59;5023595;28;20297;-73
2024/04/03 09:25:25;;;;;;;2.27;0.73;;;;;;;12.02;100.00;99888.81;5023549;28;20202;-73
2024/04/03 09:28:01;;;;;;;4.40;0.90;;;;;;;11.99;100.00;99884.63;5022543;28;20293;-73
2024/04/03 09:30:33;;;;;;;1.30;0.60;;;;;;;11.96;100.00;99886.69;5022044;28;20231;-73
2024/04/03 09:32:59;;;;;;;1.30;0.60;;;;;;;11.91;100.00;99881.72;5022907;28;20271;-73
2024/04/03 09:35:28;;;;;;;2.77;1.10;;;;;;;11.91;100.00;99879.03;5018687;28;20199;-73
2024/04/03 09:37:55;;;;;;;0.80;0.70;;;;;;;11.97;100.00;99875.88;5024316;28;20229;-73
2024/04/03 09:40:25;;;;;;;1.03;0.60;;;;;;;11.96;100.00;99874.19;5027430;28;20720;-73
2024/04/03 09:42:56;;;;;;;1.40;0.60;;;;;;;11.94;100.00;99873.47;5037939;28;20202;-74
2024/04/03 09:45:24;;;;;;;2.10;1.43;;;;;;;11.98;100.00;99876.72;5030514;28;20296;-73
2024/04/03 09:47:56;;;;;;;1.83;0.93;;;;;;;12.01;100.00;99876.44;5030556;28;20208;-73
2024/04/03 09:50:23;;;;;;;3.17;2.30;;;;;;;11.98;100.00;99876.72;5033702;28;20340;-73
2024/04/03 09:52:51;;;;;;;2.10;0.87;;;;;;;11.98;100.00;99869.56;5030088;28;20205;-73
2024/04/03 09:55:22;;;;;;;1.97;0.70;;;;;;;12.00;100.00;99878.28;5031817;28;20209;-73
2024/04/03 09:57:48;;;;;;;3.30;1.13;;;;;;;11.96;100.00;99874.19;5030730;28;20319;-74
2024/04/03 10:00:17;;;;;;;2.10;0.80;;;;;;;11.94;100.00;99873.47;5033163;28;20305;-73
2024/04/03 10:02:49;;;;;;;1.50;0.90;;;;;;;12.00;100.00;99870.28;5033439;28;20877;-74
2024/04/03 10:05:15;;;;;;;1.87;0.70;;;;;;;12.03;100.00;99861.16;5029828;28;20213;-73
2024/04/03 10:07:41;;;;;;;2.80;0.93;;;;;;;12.08;100.00;99872.31;5031090;28;20209;-73
2024/04/03 10:10:16;;;;;;;1.47;0.60;;;;;;;12.10;100.00;99865.03;5029498;28;20245;-73
2024/04/03 10:12:45;;;;;;;1.43;0.60;;;;;;;12.12;100.00;99858.59;5030343;28;20590;-73
2024/04/03 10:15:22;;;;;;;2.20;0.70;;;;;;;12.11;100.00;99856.06;5029166;28;20217;-73
2024/04/03 10:17:48;;;;;;;1.67;0.70;;;;;;;12.14;100.00;99853.16;5032502;28;20250;-73
2024/04/03 10:20:29;;;;;;;1.37;0.60;;;;;;;12.19;100.00;99842.91;5024408;28;20766;-73
2024/04/03 10:22:55;;;;;;;1.33;0.87;;;;;;;12.21;100.00;99837.44;5028842;28;20213;-73
2024/04/03 10:25:22;;;;;;;1.80;0.70;;;;;;;12.23;100.00;99835.50;5026107;28;20233;-72
2024/04/03 10:27:49;;;;;;;1.53;0.97;;;;;;;12.24;100.00;99840.72;5028335;28;20213;-74
2024/04/03 10:30:18;;;;;;;1.93;0.83;;;;;;;12.33;100.00;99831.13;5036745;28;20233;-72
2024/04/03 10:32:44;;;;;;;0.80;0.60;;;;;;;12.36;100.00;99831.69;5031385;28;20688;-73
2024/04/03 10:35:11;;;;;;;1.27;0.53;;;;;;;12.42;100.00;99822.31;5028936;28;20649;-73
2024/04/03 10:37:37;;;;;;;1.97;0.73;;;;;;;12.43;100.00;99822.19;5031750;28;20225;-74
2024/04/03 10:40:04;;;;;;;1.90;0.50;;;;;;;12.51;100.00;99825.06;5028747;28;20236;-73
2024/04/03 10:42:30;;;;;;;0.93;0.60;;;;;;;12.51;100.00;99817.06;5034139;28;20224;-73
2024/04/03 10:44:58;;;;;;;1.27;0.80;;;;;;;12.59;100.00;99820.88;5032092;28;20256;-73
2024/04/03 10:47:24;;;;;;;0.70;0.50;;;;;;;12.62;100.00;99815.28;5026295;28;20313;-72
2024/04/03 10:49:50;;;;;;;1.80;0.80;;;;;;;12.69;100.00;99820.00;5028268;28;20601;-74
2024/04/03 10:52:16;;;;;;;1.67;0.90;;;;;;;12.70;100.00;99818.16;5034643;28;20203;-74
2024/04/03 10:54:43;;;;;;;1.73;0.60;;;;;;;12.70;100.00;99815.50;5037767;28;20220;-73
2024/04/03 10:57:08;;;;;;;1.87;1.20;;;;;;;12.74;100.00;99816.91;5037036;28;20293;-73
2024/04/03 10:59:36;;;;;;;1.27;0.67;;;;;;;12.80;100.00;99813.72;5035762;28;20940;-74
2024/04/03 11:02:09;;;;;;;2.10;1.00;;;;;;;12.75;100.00;99813.25;5031463;28;20211;-73
2024/04/03 11:04:35;;;;;;;1.47;0.83;;;;;;;12.79;99.81;99812.03;5034041;28;20290;-73
2024/04/03 11:07:01;;;;;;;1.80;0.83;;;;;;;12.74;98.16;99803.56;5029865;28;20307;-73
2024/04/03 11:09:27;;;;;;;1.47;0.70;;;;;;;12.70;96.86;99804.81;5037290;28;20300;-73
2024/04/03 11:12:00;;;;;;;3.13;1.47;;;;;;;12.76;96.96;99801.59;5035192;28;20700;-73
2024/04/03 11:14:26;;;;;;;1.57;0.80;;;;;;;12.76;98.38;99806.94;5033426;28;20254;-72
2024/04/03 11:16:52;;;;;;;2.40;0.97;;;;;;;12.79;100.00;99804.84;5033079;28;20294;-73
2024/04/03 11:19:20;;;;;;;1.77;1.00;;;;;;;12.75;97.71;99798.06;5035422;28;20309;-73
2024/04/03 11:21:46;;;;;;;2.33;1.13;;;;;;;12.78;97.72;99797.81;5031237;28;20211;-73
2024/04/03 11:24:12;;;;;;;2.13;1.20;;;;;;;12.79;95.57;99790.66;5028640;28;20202;-72
2024/04/03 11:26:42;;;;;;;2.10;0.80;;;;;;;12.80;95.61;99795.03;5033865;28;20219;-73
2024/04/03 11:29:26;;;;;;;2.63;0.77;;;;;;;12.81;96.50;99802.06;5029016;28;20200;-73
2024/04/03 11:31:53;;;;;;;1.50;0.80;;;;;;;12.82;96.87;99796.59;5020535;28;20197;-73